createdAt,value
2022-12-20T00:01:36.539Z,13.37
2022-12-20T00:04:06.625Z,13.70
2022-12-20T00:06:36.490Z,13.63
2022-12-20T00:09:06.881Z,12.67
2022-12-20T00:11:34.968Z,12.80
2022-12-20T00:14:04.232Z,11.67
2022-12-20T00:16:32.913Z,13.03
2022-12-20T00:19:03.370Z,12.80
2022-12-20T00:21:32.296Z,13.83
2022-12-20T00:24:00.870Z,11.33
2022-12-20T00:26:30.539Z,12.53
2022-12-20T00:28:58.981Z,13.37
2022-12-20T00:31:30.396Z,14.53
2022-12-20T00:34:00.112Z,11.53
2022-12-20T00:36:30.421Z,10.03
2022-12-20T00:38:59.480Z,10.07
2022-12-20T00:41:29.225Z,10.10
2022-12-20T00:43:57.132Z,10.30
2022-12-20T00:46:26.380Z,9.60
2022-12-20T00:48:56.857Z,8.87
2022-12-20T00:51:27.205Z,7.87
2022-12-20T00:53:55.598Z,9.00
2022-12-20T00:56:24.161Z,8.73
2022-12-20T00:58:54.658Z,9.77
2022-12-20T01:01:25.327Z,10.83
2022-12-20T01:03:55.801Z,9.70
2022-12-20T01:06:24.356Z,9.37
2022-12-20T01:08:52.672Z,9.20
2022-12-20T01:11:23.081Z,9.73
2022-12-20T01:13:52.514Z,10.27
2022-12-20T01:16:25.481Z,9.87
2022-12-20T01:18:55.595Z,9.00
2022-12-20T01:21:25.316Z,9.63
2022-12-20T01:23:53.654Z,9.53
2022-12-20T01:26:24.165Z,10.20
2022-12-20T01:28:55.186Z,9.63
2022-12-20T01:31:23.789Z,9.33
2022-12-20T01:33:52.524Z,8.80
2022-12-20T01:36:25.281Z,9.20
2022-12-20T01:38:57.877Z,8.17
2022-12-20T01:41:26.565Z,8.17
2022-12-20T01:43:59.714Z,8.83
2022-12-20T01:46:30.395Z,9.00
2022-12-20T01:49:03.410Z,8.87
2022-12-20T01:51:37.145Z,9.63
2022-12-20T01:54:11.186Z,9.17
2022-12-20T01:56:41.240Z,8.53
2022-12-20T01:59:09.857Z,9.50
2022-12-20T02:01:37.931Z,9.87
2022-12-20T02:04:05.952Z,9.50
2022-12-20T02:06:35.210Z,9.03
2022-12-20T02:09:05.531Z,8.67
2022-12-20T02:11:47.941Z,9.17
2022-12-20T02:14:25.210Z,8.60
2022-12-20T02:16:58.699Z,10.63
2022-12-20T02:19:54.859Z,9.60
2022-12-20T02:22:31.893Z,10.30
2022-12-20T02:25:25.179Z,10.03
2022-12-20T02:28:00.057Z,10.63
2022-12-20T02:30:35.685Z,11.53
2022-12-20T02:33:05.385Z,10.97
2022-12-20T02:35:35.500Z,12.17
2022-12-20T02:38:24.915Z,9.83
2022-12-20T02:40:57.130Z,10.93
2022-12-20T02:43:43.583Z,9.30
2022-12-20T02:46:14.212Z,8.47
2022-12-20T02:48:43.533Z,9.23
2022-12-20T02:51:12.879Z,7.77
2022-12-20T02:53:42.977Z,7.87
2022-12-20T02:56:17.763Z,8.23
2022-12-20T02:58:50.897Z,8.80
2022-12-20T03:01:26.077Z,7.83
2022-12-20T03:03:55.557Z,9.30
2022-12-20T03:06:23.448Z,9.07
2022-12-20T03:08:51.366Z,8.53
2022-12-20T03:11:20.486Z,9.10
2022-12-20T03:13:48.449Z,8.93
2022-12-20T03:16:16.367Z,9.17
2022-12-20T03:18:46.195Z,8.90
2022-12-20T03:21:14.415Z,8.67
2022-12-20T03:23:42.299Z,8.60
2022-12-20T03:26:10.217Z,9.07
2022-12-20T03:28:38.157Z,9.73
2022-12-20T03:31:06.198Z,9.30
2022-12-20T03:33:34.175Z,9.63
2022-12-20T03:36:03.415Z,9.47
2022-12-20T03:38:31.256Z,9.83
2022-12-20T03:40:59.123Z,10.10
2022-12-20T03:43:29.120Z,9.57
2022-12-20T03:45:57.105Z,11.17
2022-12-20T03:48:25.234Z,10.63
2022-12-20T03:50:53.102Z,10.37
2022-12-20T03:53:22.380Z,10.60
2022-12-20T03:55:50.243Z,10.13
2022-12-20T03:58:18.140Z,10.90
2022-12-20T04:00:46.013Z,11.10
2022-12-20T04:03:13.944Z,12.03
2022-12-20T04:05:42.177Z,11.10
2022-12-20T04:08:10.124Z,11.20
2022-12-20T04:10:59.416Z,10.30
2022-12-20T04:13:27.251Z,10.67
2022-12-20T04:15:59.999Z,10.30
2022-12-20T04:18:28.700Z,10.60
2022-12-20T04:20:56.573Z,10.97
2022-12-20T04:23:24.414Z,10.87
2022-12-20T04:25:53.826Z,11.10
2022-12-20T04:28:21.777Z,11.63
2022-12-20T04:30:50.228Z,12.27
2022-12-20T04:33:18.092Z,12.10
2022-12-20T04:35:46.014Z,11.93
2022-12-20T04:38:13.902Z,11.87
2022-12-20T04:40:41.799Z,11.93
2022-12-20T04:43:11.128Z,12.37
2022-12-20T04:45:39.043Z,11.70
2022-12-20T04:48:37.195Z,12.17
2022-12-20T04:50:56.031Z,12.83
2022-12-20T04:53:41.759Z,12.77
2022-12-20T04:56:09.932Z,12.00
2022-12-20T04:58:39.148Z,13.00
2022-12-20T05:01:07.047Z,13.37
2022-12-20T05:03:34.995Z,13.03
2022-12-20T05:06:03.106Z,14.77
2022-12-20T05:08:31.046Z,13.23
2022-12-20T05:10:58.929Z,13.27
2022-12-20T05:13:26.872Z,12.60
2022-12-20T05:15:57.102Z,14.00
2022-12-20T05:18:25.318Z,13.83
2022-12-20T05:21:16.566Z,13.77
2022-12-20T05:24:02.610Z,14.83
2022-12-20T05:26:33.187Z,15.23
2022-12-20T05:29:01.032Z,15.57
2022-12-20T05:31:30.580Z,17.77
2022-12-20T05:33:58.498Z,18.13
2022-12-20T05:36:26.412Z,18.43
2022-12-20T05:38:58.214Z,18.97
2022-12-20T05:41:31.405Z,17.77
2022-12-20T05:43:59.396Z,17.53
2022-12-20T05:46:27.477Z,16.07
2022-12-20T05:48:56.759Z,15.67
2022-12-20T05:51:24.724Z,15.20
2022-12-20T05:53:52.597Z,16.17
2022-12-20T05:56:20.441Z,15.73
2022-12-20T05:58:48.648Z,17.03
2022-12-20T06:01:16.593Z,16.87
2022-12-20T06:03:45.806Z,14.87
2022-12-20T13:57:27.201Z,8.77
2022-12-20T14:00:03.583Z,7.63
2022-12-20T14:02:37.764Z,9.20
2022-12-20T14:05:14.778Z,10.00
2022-12-20T14:07:43.702Z,11.17
2022-12-20T14:10:20.861Z,10.77
2022-12-20T14:12:54.438Z,8.87
2022-12-20T14:15:33.531Z,8.23
2022-12-20T14:18:07.112Z,9.50
2022-12-20T14:20:37.109Z,9.60
2022-12-20T14:23:07.173Z,11.37
2022-12-20T14:25:43.354Z,13.00
2022-12-20T14:28:26.970Z,11.47
2022-12-20T14:30:56.970Z,12.13
2022-12-20T14:33:31.386Z,14.00
2022-12-20T14:36:08.225Z,14.73
2022-12-20T14:38:36.209Z,14.10
2022-12-20T14:41:04.251Z,16.27
2022-12-20T14:43:37.913Z,15.93
2022-12-20T14:46:20.115Z,18.77
2022-12-20T14:48:48.259Z,19.27
2022-12-20T14:51:22.139Z,21.40
2022-12-20T14:53:53.367Z,23.07
2022-12-20T14:56:31.318Z,23.30
2022-12-20T14:59:07.991Z,22.83
2022-12-20T15:01:41.727Z,21.27
2022-12-20T15:04:24.274Z,15.63
2022-12-20T15:06:53.358Z,16.80
2022-12-20T15:09:21.730Z,21.27
2022-12-20T15:11:51.612Z,24.70
2022-12-20T15:14:33.006Z,19.60
2022-12-20T15:17:01.208Z,18.33
2022-12-20T15:19:31.334Z,14.83
2022-12-20T15:21:59.350Z,14.70
2022-12-20T15:24:28.780Z,16.17
2022-12-20T15:26:57.704Z,16.90
2022-12-20T15:29:28.783Z,16.57
2022-12-20T15:32:05.348Z,15.50
2022-12-20T15:34:36.532Z,17.57
2022-12-20T15:37:05.887Z,16.30
2022-12-20T15:39:34.832Z,15.57
2022-12-20T15:42:05.745Z,16.47
2022-12-20T15:44:36.164Z,17.83
2022-12-20T15:47:04.543Z,24.20
2022-12-20T15:49:33.574Z,17.20
2022-12-20T15:52:01.461Z,17.17
2022-12-20T15:54:31.491Z,19.63
2022-12-20T15:57:02.933Z,20.53
2022-12-20T16:02:24.644Z,18.60
2022-12-20T16:04:53.531Z,15.60
2022-12-20T16:07:21.833Z,17.90
2022-12-20T16:09:49.870Z,18.53
2022-12-20T16:12:20.438Z,17.70
2022-12-20T16:14:48.514Z,19.60
2022-12-20T16:17:17.088Z,16.33
2022-12-20T16:19:47.337Z,26.30
2022-12-20T16:22:17.550Z,30.77
2022-12-20T16:24:46.325Z,28.27
2022-12-20T16:27:14.271Z,25.03
2022-12-20T16:29:42.412Z,24.20
2022-12-20T16:32:15.563Z,24.10
2022-12-20T16:34:43.835Z,17.37
2022-12-20T16:37:13.192Z,19.70
2022-12-20T16:39:41.425Z,21.50
2022-12-20T16:42:14.915Z,18.77
2022-12-20T16:44:45.330Z,26.27
2022-12-20T16:47:14.653Z,17.53
2022-12-20T16:49:49.650Z,18.13
2022-12-20T16:52:22.880Z,16.93
2022-12-20T16:54:51.348Z,16.57
2022-12-20T16:57:19.718Z,16.40
2022-12-20T16:59:47.683Z,16.77
2022-12-20T17:02:23.668Z,18.47
2022-12-20T17:04:52.101Z,19.53
2022-12-20T17:07:21.424Z,19.63
2022-12-20T17:12:34.756Z,18.97
2022-12-20T17:15:03.100Z,20.80
2022-12-20T17:17:30.950Z,21.37
2022-12-20T17:19:58.960Z,20.67
2022-12-20T17:25:20.806Z,21.67
2022-12-20T17:27:48.843Z,21.57
2022-12-20T17:30:17.021Z,22.33
2022-12-20T17:32:45.618Z,23.63
2022-12-20T17:35:30.439Z,22.00
2022-12-20T17:38:01.863Z,23.33
2022-12-20T17:40:30.454Z,22.97
2022-12-20T17:42:58.335Z,26.20
2022-12-20T17:45:29.801Z,23.70
2022-12-20T17:47:58.781Z,25.93
2022-12-20T17:50:27.829Z,28.20
2022-12-20T17:52:55.879Z,27.60
2022-12-20T17:55:27.536Z,29.00
2022-12-20T17:57:56.357Z,30.90
2022-12-20T18:00:29.636Z,32.83
2022-12-20T18:03:02.759Z,34.73
2022-12-20T18:05:31.005Z,37.00
2022-12-20T18:07:58.948Z,37.57
2022-12-20T18:10:28.276Z,40.37
2022-12-20T18:12:56.400Z,38.93
2022-12-20T18:15:24.386Z,30.87
2022-12-20T18:17:52.259Z,29.10
2022-12-20T18:20:20.305Z,26.13
2022-12-20T18:22:48.253Z,26.43
2022-12-20T18:25:18.332Z,29.50
2022-12-20T18:27:47.822Z,33.10
2022-12-20T18:30:15.954Z,29.17
2022-12-20T18:32:43.830Z,28.10
2022-12-20T18:35:12.052Z,38.23
2022-12-20T18:37:39.925Z,26.63
2022-12-20T18:40:09.680Z,24.67
2022-12-20T18:42:37.833Z,27.47
2022-12-20T18:45:08.212Z,26.40
2022-12-20T18:47:37.678Z,22.97
2022-12-20T18:50:06.881Z,25.43
2022-12-20T18:52:34.839Z,23.23
2022-12-20T18:55:02.813Z,22.57
2022-12-20T18:57:30.863Z,22.80
2022-12-20T18:59:58.892Z,22.47
2022-12-20T19:02:28.587Z,19.70
2022-12-20T19:04:57.828Z,16.37
2022-12-20T19:07:25.951Z,16.07
2022-12-20T19:09:53.991Z,16.40
2022-12-20T19:12:21.981Z,17.43
2022-12-20T19:14:50.221Z,16.13
2022-12-20T19:17:18.206Z,15.93
2022-12-20T19:19:47.724Z,15.90
2022-12-20T19:22:15.620Z,15.67
2022-12-20T19:24:43.539Z,16.40
2022-12-20T19:27:11.423Z,15.00
2022-12-20T19:29:39.333Z,18.80
2022-12-20T19:32:07.211Z,17.03
2022-12-20T19:34:35.164Z,17.07
2022-12-20T19:37:04.416Z,14.63
2022-12-20T19:39:32.276Z,15.27
2022-12-20T19:42:22.891Z,15.47
2022-12-20T19:44:48.664Z,16.43
2022-12-20T19:47:16.629Z,17.37
2022-12-20T19:49:44.503Z,19.13
2022-12-20T19:52:13.776Z,19.23
2022-12-20T19:54:43.289Z,18.63
2022-12-20T19:57:11.284Z,15.30
2022-12-20T19:59:39.129Z,17.57
2022-12-20T20:02:07.791Z,16.37
2022-12-20T20:04:35.898Z,17.10
2022-12-20T20:07:04.618Z,14.03
2022-12-20T20:09:34.015Z,13.27
2022-12-20T20:12:02.004Z,13.70
2022-12-20T20:14:30.412Z,14.33
2022-12-20T20:16:58.565Z,13.20
2022-12-20T20:19:26.527Z,12.80
2022-12-20T20:21:54.396Z,12.77
2022-12-20T20:24:22.400Z,13.10
2022-12-20T20:26:51.735Z,11.80
2022-12-20T20:29:20.368Z,12.00
2022-12-20T20:31:48.488Z,11.70
2022-12-20T20:34:16.396Z,11.30
2022-12-20T20:36:44.258Z,10.73
2022-12-20T20:39:12.348Z,12.97
2022-12-20T20:41:40.824Z,13.47
2022-12-20T20:44:11.800Z,12.13
2022-12-20T20:46:39.770Z,12.40
2022-12-20T20:49:07.715Z,11.83
2022-12-20T20:51:35.602Z,12.70
2022-12-20T20:54:03.486Z,12.60
2022-12-20T20:56:31.488Z,11.43
2022-12-20T20:59:05.860Z,12.67
2022-12-20T21:01:37.617Z,12.47
2022-12-20T21:04:06.415Z,12.97
2022-12-20T21:06:40.929Z,12.87
2022-12-20T21:09:09.628Z,13.87
2022-12-20T21:11:37.836Z,15.63
2022-12-20T21:14:05.974Z,15.30
2022-12-20T21:16:35.453Z,13.13
2022-12-20T21:19:05.730Z,12.77
2022-12-20T21:21:33.700Z,13.83
2022-12-20T21:24:01.587Z,12.57
2022-12-20T21:26:29.467Z,11.30
2022-12-20T21:28:58.862Z,12.53
2022-12-20T21:31:26.822Z,12.43
2022-12-20T21:33:55.721Z,12.73
2022-12-20T21:36:25.129Z,12.20
2022-12-20T21:38:55.659Z,13.50
2022-12-20T21:41:25.770Z,16.87
2022-12-20T21:43:57.750Z,16.43
2022-12-20T21:46:26.035Z,18.63
2022-12-20T21:48:54.012Z,15.80
2022-12-20T21:51:26.508Z,14.03
2022-12-20T21:53:56.174Z,15.30
2022-12-20T21:56:25.260Z,13.20
2022-12-20T21:58:53.188Z,12.60
2022-12-20T22:01:23.263Z,14.20
2022-12-20T22:03:52.450Z,13.27
2022-12-20T22:06:20.957Z,11.57
2022-12-20T22:08:50.704Z,9.97
2022-12-20T22:11:19.871Z,9.63
2022-12-20T22:13:48.328Z,11.23
2022-12-20T22:16:18.161Z,10.30
2022-12-20T22:18:50.153Z,8.27
2022-12-20T22:21:21.577Z,9.73
2022-12-20T22:23:51.191Z,9.50
2022-12-20T22:26:21.545Z,10.17
2022-12-20T22:28:51.738Z,11.03
2022-12-20T22:31:20.374Z,11.23
2022-12-20T22:33:49.465Z,10.20
2022-12-20T22:36:17.752Z,9.20
2022-12-20T22:38:46.061Z,10.53
2022-12-20T22:41:17.750Z,10.77
2022-12-20T22:43:47.350Z,10.30
2022-12-20T22:46:16.984Z,8.73
2022-12-20T22:48:45.713Z,10.07
2022-12-20T22:51:15.563Z,9.97
2022-12-20T22:53:44.291Z,8.90
2022-12-20T22:56:13.148Z,8.83
2022-12-20T22:58:42.328Z,8.53
2022-12-20T23:01:13.075Z,9.20
2022-12-20T23:03:41.453Z,9.77
2022-12-20T23:06:12.845Z,10.07
2022-12-20T23:08:40.919Z,10.57
2022-12-20T23:11:49.342Z,11.57
2022-12-20T23:14:38.003Z,11.17
2022-12-20T23:17:07.107Z,11.20
2022-12-20T23:20:04.123Z,12.30
2022-12-20T23:22:48.721Z,11.90
2022-12-20T23:25:19.191Z,11.30
2022-12-20T23:27:49.276Z,12.13
2022-12-20T23:30:22.599Z,13.27
2022-12-20T23:32:50.531Z,15.40
2022-12-20T23:35:20.763Z,13.50
2022-12-20T23:37:49.419Z,13.13
2022-12-20T23:40:18.144Z,14.23
2022-12-20T23:42:46.307Z,14.70
2022-12-20T23:45:14.582Z,17.23
2022-12-20T23:47:43.761Z,19.40
2022-12-20T23:50:12.142Z,22.73
2022-12-20T23:52:40.550Z,25.17
2022-12-20T23:55:09.721Z,23.87
2022-12-20T23:57:37.645Z,24.93
